Time;durP1;ratioP1;P1;durP2;ratioP2;P2;SDS_P1;SDS_P2;PMS_P1;PMS_P2;Temp;Humidity;BMP_temperature;BMP_pressure;BME280_temperature;BME280_humidity;BME280_pressure;Samples;Min_cycle;Max_cycle;Signal;HPM_P1;HPM_P2
2023/03/21 00:00:30;;;;;;;29.48;22.58;;;8.90;99.90;;;;;;4939643;28;89881;-32
2023/03/21 00:02:55;;;;;;;32.88;20.50;;;8.90;99.90;;;;;;4921524;28;90197;-28
2023/03/21 00:05:21;;;;;;;29.80;20.30;;;8.90;99.90;;;;;;4921273;28;89918;-29
2023/03/21 00:07:47;;;;;;;29.58;20.58;;;8.90;99.90;;;;;;4920215;28;89536;-32
2023/03/21 00:10:12;;;;;;;28.88;22.40;;;8.90;99.90;;;;;;4920217;28;88513;-30
2023/03/21 00:12:38;;;;;;;27.88;20.85;;;8.90;99.90;;;;;;4921304;28;90920;-30
2023/03/21 00:15:08;;;;;;;29.50;22.25;;;8.90;99.90;;;;;;4921496;28;90280;-31
2023/03/21 00:17:34;;;;;;;31.63;21.48;;;8.90;99.90;;;;;;4921731;28;90397;-28
2023/03/21 00:20:04;;;;;;;28.60;21.42;;;8.90;99.90;;;;;;4921081;28;89007;-32
2023/03/21 00:22:30;;;;;;;27.98;21.85;;;8.90;99.90;;;;;;4921206;28;90253;-31
2023/03/21 00:24:56;;;;;;;30.13;21.75;;;8.90;99.90;;;;;;4921204;28;89857;-31
2023/03/21 00:27:22;;;;;;;35.50;22.17;;;9.00;99.90;;;;;;4921001;28;90114;-31
2023/03/21 00:29:48;;;;;;;33.95;23.55;;;9.00;99.90;;;;;;4922029;28;89495;-32
2023/03/21 00:32:15;;;;;;;35.22;24.55;;;9.00;99.90;;;;;;4940437;28;90181;-30
2023/03/21 00:34:41;;;;;;;37.50;23.52;;;9.00;99.90;;;;;;4939262;28;89216;-30
2023/03/21 00:37:08;;;;;;;30.50;20.55;;;9.00;99.90;;;;;;4930841;28;89842;-32
2023/03/21 00:39:34;;;;;;;30.73;21.67;;;9.00;99.90;;;;;;4920985;28;89736;-29
2023/03/21 00:42:00;;;;;;;33.28;22.90;;;9.00;99.90;;;;;;4928701;28;89405;-30
2023/03/21 00:44:26;;;;;;;33.92;21.67;;;9.00;99.90;;;;;;4939194;28;90185;-30
2023/03/21 00:46:51;;;;;;;33.08;23.45;;;9.00;99.90;;;;;;4940314;28;89611;-29
2023/03/21 00:49:19;;;;;;;34.80;24.20;;;9.00;99.90;;;;;;4939238;28;88324;-29
2023/03/21 00:51:45;;;;;;;30.13;21.70;;;9.00;99.90;;;;;;4930379;28;89980;-32
2023/03/21 00:54:11;;;;;;;30.08;21.77;;;9.10;99.90;;;;;;4919936;28;91651;-29
2023/03/21 00:56:37;;;;;;;34.55;24.30;;;9.10;99.90;;;;;;4919999;28;89935;-27
2023/03/21 00:59:03;;;;;;;27.02;20.45;;;9.10;99.90;;;;;;4922423;28;89776;-30
2023/03/21 01:01:30;;;;;;;33.47;23.20;;;9.10;99.90;;;;;;4939500;28;90956;-31
2023/03/21 01:04:01;;;;;;;33.70;22.30;;;9.10;99.90;;;;;;4935443;28;90204;-28
2023/03/21 01:06:27;;;;;;;30.30;22.67;;;9.10;99.90;;;;;;4929887;28;90259;-28
2023/03/21 01:08:53;;;;;;;28.75;20.98;;;9.10;99.90;;;;;;4939577;28;89436;-33
2023/03/21 01:11:28;;;;;;;29.20;21.05;;;9.10;99.90;;;;;;4929891;28;91183;-31
2023/03/21 01:13:54;;;;;;;29.20;20.38;;;9.10;99.90;;;;;;4920219;28;89137;-33
2023/03/21 01:16:20;;;;;;;23.58;16.98;;;9.10;99.90;;;;;;4920947;28;88984;-28
2023/03/21 01:18:46;;;;;;;25.55;19.65;;;9.10;99.90;;;;;;4919355;28;90311;-29
2023/03/21 01:21:13;;;;;;;26.50;18.35;;;9.10;99.90;;;;;;4930431;28;90329;-32
2023/03/21 01:23:40;;;;;;;31.45;22.02;;;9.10;99.90;;;;;;4939071;28;89590;-32
2023/03/21 01:26:07;;;;;;;28.90;18.98;;;9.10;99.90;;;;;;4938583;28;89384;-31
2023/03/21 01:28:34;;;;;;;25.70;19.83;;;9.10;99.90;;;;;;4920561;28;89432;-28
2023/03/21 01:31:02;;;;;;;23.77;17.90;;;9.20;99.90;;;;;;4931246;28;90237;-29
2023/03/21 01:33:28;;;;;;;26.98;18.60;;;9.20;99.90;;;;;;4939473;28;89385;-29
2023/03/21 01:35:53;;;;;;;27.23;19.50;;;9.20;99.90;;;;;;4938589;28;89725;-28
2023/03/21 01:38:19;;;;;;;32.85;19.17;;;9.10;99.90;;;;;;4936156;28;89709;-28
2023/03/21 01:40:47;;;;;;;30.05;20.38;;;9.20;99.90;;;;;;4931322;28;89197;-28
2023/03/21 01:43:25;;;;;;;23.92;16.60;;;9.20;99.90;;;;;;4933491;28;89479;-29
2023/03/21 01:46:00;;;;;;;25.10;19.97;;;9.20;99.90;;;;;;4919691;28;89294;-32
2023/03/21 01:48:27;;;;;;;25.08;18.77;;;9.20;99.90;;;;;;4920428;28;89990;-28
2023/03/21 01:50:54;;;;;;;25.07;18.23;;;9.20;99.90;;;;;;4919722;28;90384;-28
2023/03/21 01:53:27;;;;;;;27.23;19.20;;;9.20;99.90;;;;;;4918769;28;91219;-31
2023/03/21 01:55:53;;;;;;;24.33;17.65;;;9.20;99.90;;;;;;4919929;28;89263;-29
2023/03/21 01:58:19;;;;;;;25.65;18.40;;;9.20;99.90;;;;;;4919981;28;89470;-32
2023/03/21 02:00:47;;;;;;;25.73;17.50;;;9.20;99.90;;;;;;4920510;28;89200;-30
2023/03/21 02:03:15;;;;;;;;;;;9.30;99.90;;;;;;4920948;28;91289;-28
2023/03/21 02:05:49;;;;;;;25.03;16.83;;;9.30;99.90;;;;;;4922261;28;88757;-30
2023/03/21 02:08:15;;;;;;;27.55;17.35;;;9.20;99.90;;;;;;4920897;28;88505;-29
2023/03/21 02:10:45;;;;;;;26.55;17.85;;;9.30;99.90;;;;;;4920170;28;90221;-29
2023/03/21 02:13:11;;;;;;;22.60;15.27;;;9.30;99.90;;;;;;4902560;28;89662;-30
2023/03/21 02:15:40;;;;;;;19.90;15.63;;;9.30;99.90;;;;;;4920243;28;88940;-32
2023/03/21 02:18:28;;;;;;;23.45;18.85;;;9.30;99.90;;;;;;4919369;28;89196;-29
2023/03/21 02:21:26;;;;;;;25.83;16.95;;;9.30;99.90;;;;;;4909460;28;90817;-31
2023/03/21 02:24:29;;;;;;;24.83;16.02;;;9.30;99.90;;;;;;4919638;28;88939;-29
2023/03/21 02:27:22;;;;;;;25.27;16.08;;;9.30;99.90;;;;;;4920157;28;90663;-29
2023/03/21 02:30:09;;;;;;;24.08;17.00;;;9.30;99.90;;;;;;4921077;28;88605;-29
2023/03/21 02:32:40;;;;;;;24.90;16.42;;;9.30;99.90;;;;;;4939917;28;89953;-33
2023/03/21 02:35:34;;;;;;;22.73;15.23;;;9.30;99.90;;;;;;4928162;28;90315;-29
2023/03/21 02:38:07;;;;;;;20.70;14.95;;;9.40;99.90;;;;;;4940759;28;89640;-32
2023/03/21 02:41:11;;;;;;;25.15;14.80;;;9.30;99.90;;;;;;4941921;28;87854;-30
2023/03/21 02:43:40;;;;;;;22.48;16.13;;;9.30;99.90;;;;;;4880641;28;90407;-31
2023/03/21 02:46:35;;;;;;;25.60;16.65;;;9.40;99.90;;;;;;4938819;28;90843;-32
2023/03/21 02:49:11;;;;;;;22.90;15.77;;;9.40;99.90;;;;;;4934272;28;90517;-32
2023/03/21 02:51:39;;;;;;;25.33;17.92;;;9.40;99.90;;;;;;4941245;28;89644;-32
2023/03/21 02:54:11;;;;;;;25.80;16.77;;;9.40;99.90;;;;;;4927926;28;90334;-33
2023/03/21 02:56:39;;;;;;;20.40;15.05;;;9.40;99.90;;;;;;4932474;28;89528;-31
2023/03/21 02:59:05;;;;;;;20.15;14.35;;;9.30;99.90;;;;;;4937889;28;89599;-29
2023/03/21 03:01:31;;;;;;;22.58;15.13;;;9.40;99.90;;;;;;4941865;28;88972;-30
2023/03/21 03:03:57;;;;;;;22.73;15.40;;;9.30;99.90;;;;;;4940068;28;89865;-29
2023/03/21 03:06:27;;;;;;;19.55;14.65;;;9.30;99.90;;;;;;4940741;28;89824;-31
2023/03/21 03:08:59;;;;;;;19.30;13.38;;;9.40;99.90;;;;;;4940478;28;89530;-30
2023/03/21 03:11:35;;;;;;;22.45;14.18;;;9.40;99.90;;;;;;4941045;28;89987;-29
2023/03/21 03:14:07;;;;;;;18.05;13.20;;;9.30;99.90;;;;;;4935499;28;90352;-29
2023/03/21 03:17:16;;;;;;;18.92;13.40;;;9.30;99.90;;;;;;4921643;28;89616;-31
2023/03/21 03:20:00;;;;;;;20.50;14.07;;;9.30;99.90;;;;;;4921461;28;89647;-29
2023/03/21 03:22:41;;;;;;;23.10;14.98;;;9.30;99.90;;;;;;4911533;28;89241;-32
2023/03/21 03:25:12;;;;;;;28.13;16.15;;;9.30;99.90;;;;;;4922526;28;90362;-32
2023/03/21 03:27:42;;;;;;;18.77;12.63;;;9.30;99.90;;;;;;4921972;28;89441;-28
2023/03/21 03:30:09;;;;;;;23.70;13.65;;;9.30;99.90;;;;;;4921866;28;90263;-30
2023/03/21 03:32:46;;;;;;;17.65;12.48;;;9.30;99.90;;;;;;4922428;28;88449;-29
2023/03/21 03:35:15;;;;;;;17.85;12.00;;;9.30;99.90;;;;;;4922149;28;90292;-30
2023/03/21 03:37:41;;;;;;;19.63;13.05;;;9.30;99.90;;;;;;4921032;28;90783;-32
2023/03/21 03:40:15;;;;;;;14.70;11.77;;;9.30;99.90;;;;;;4926994;28;90418;-28
2023/03/21 03:42:48;;;;;;;21.23;13.32;;;9.30;99.90;;;;;;4927012;28;89677;-31
2023/03/21 03:45:14;;;;;;;20.65;12.68;;;9.30;99.90;;;;;;4920597;28;89901;-31
2023/03/21 03:47:49;;;;;;;18.15;13.20;;;9.30;99.90;;;;;;4921511;28;90630;-34
2023/03/21 03:50:30;;;;;;;18.33;14.30;;;9.30;99.90;;;;;;4921208;28;89089;-31
2023/03/21 03:53:15;;;;;;;20.55;15.43;;;9.30;99.90;;;;;;4921654;28;88052;-29
2023/03/21 03:55:42;;;;;;;17.55;12.57;;;9.30;99.90;;;;;;4922598;28;90326;-30
2023/03/21 03:58:07;;;;;;;15.00;12.02;;;9.30;99.90;;;;;;4922442;28;89530;-32
2023/03/21 04:00:33;;;;;;;18.75;12.73;;;9.30;99.90;;;;;;4923225;28;90218;-32
2023/03/21 04:02:59;;;;;;;16.85;12.50;;;9.30;99.90;;;;;;4921092;28;89469;-29
2023/03/21 04:05:26;;;;;;;20.73;14.40;;;9.30;99.90;;;;;;4923673;28;89670;-31
2023/03/21 04:07:52;;;;;;;15.35;11.32;;;9.30;99.90;;;;;;4921352;28;89889;-30
2023/03/21 04:10:20;;;;;;;17.52;13.52;;;9.30;99.90;;;;;;4923044;28;89619;-28
2023/03/21 04:12:45;;;;;;;14.63;11.52;;;9.30;99.90;;;;;;4922505;28;89040;-31
2023/03/21 04:15:11;;;;;;;20.13;13.55;;;9.30;99.90;;;;;;4922920;28;90879;-29
2023/03/21 04:17:41;;;;;;;17.85;12.02;;;9.30;99.90;;;;;;4921523;28;89825;-30
2023/03/21 04:20:07;;;;;;;17.95;11.85;;;9.30;99.90;;;;;;4923534;28;90319;-30
2023/03/21 04:22:33;;;;;;;20.30;14.00;;;9.30;99.90;;;;;;4905955;28;89835;-29
2023/03/21 04:25:00;;;;;;;17.52;12.63;;;9.30;99.90;;;;;;4922446;28;90195;-30
2023/03/21 04:27:26;;;;;;;15.77;12.25;;;9.30;99.90;;;;;;4921777;28;90369;-33
2023/03/21 04:29:52;;;;;;;18.90;12.70;;;9.30;99.90;;;;;;4922390;28;89377;-29
2023/03/21 04:32:18;;;;;;;17.02;12.55;;;9.30;99.90;;;;;;4920893;28;88466;-30
2023/03/21 04:34:48;;;;;;;23.95;15.65;;;9.30;99.90;;;;;;4921002;28;91018;-32
2023/03/21 04:37:18;;;;;;;23.08;14.13;;;9.30;99.90;;;;;;4921588;28;89511;-30
2023/03/21 04:39:48;;;;;;;18.65;14.30;;;9.30;99.90;;;;;;4920912;28;89509;-33
2023/03/21 04:42:14;;;;;;;21.98;15.45;;;9.30;99.90;;;;;;4921441;28;89598;-29
2023/03/21 04:44:40;;;;;;;17.65;13.38;;;9.30;99.90;;;;;;4920760;28;89811;-30
2023/03/21 04:47:06;;;;;;;19.73;13.80;;;9.30;99.90;;;;;;4920449;28;89641;-29
2023/03/21 04:49:32;;;;;;;17.55;13.75;;;9.30;99.90;;;;;;4921718;28;89740;-28
2023/03/21 04:51:58;;;;;;;22.13;15.25;;;9.30;99.90;;;;;;4920287;28;90105;-31
2023/03/21 04:54:23;;;;;;;22.10;15.20;;;9.30;99.90;;;;;;4920576;28;90596;-33
2023/03/21 04:56:50;;;;;;;20.58;15.10;;;9.30;99.90;;;;;;4921065;28;89703;-28
2023/03/21 04:59:16;;;;;;;20.10;13.88;;;9.20;99.90;;;;;;4920547;28;89298;-31
2023/03/21 05:01:42;;;;;;;19.60;15.68;;;9.20;99.90;;;;;;4921233;28;88980;-30
2023/03/21 05:04:09;;;;;;;20.08;13.93;;;9.30;99.90;;;;;;4933277;28;90295;-28
2023/03/21 05:06:35;;;;;;;18.38;15.10;;;9.30;99.90;;;;;;4919912;28;89196;-28
2023/03/21 05:09:06;;;;;;;22.35;15.82;;;9.30;99.90;;;;;;4920246;28;90001;-28
2023/03/21 05:11:36;;;;;;;21.63;15.95;;;9.30;99.90;;;;;;4921125;28;89228;-32
2023/03/21 05:14:02;;;;;;;22.63;15.43;;;9.20;99.90;;;;;;4919920;28;89816;-30
2023/03/21 05:16:29;;;;;;;25.27;17.58;;;9.20;99.90;;;;;;4920279;28;90783;-27
2023/03/21 05:19:02;;;;;;;25.83;18.20;;;9.20;99.90;;;;;;4919894;28;89391;-30
2023/03/21 05:21:32;;;;;;;45.40;16.38;;;9.20;99.90;;;;;;4920553;28;89493;-32
2023/03/21 05:24:02;;;;;;;29.27;18.25;;;9.20;99.90;;;;;;4908221;28;90575;-29
2023/03/21 05:26:28;;;;;;;27.88;15.60;;;9.20;99.90;;;;;;4920210;28;89741;-31
2023/03/21 05:28:54;;;;;;;21.52;16.95;;;9.20;99.90;;;;;;4919711;28;89665;-32
2023/03/21 05:31:20;;;;;;;24.00;15.45;;;9.20;99.90;;;;;;4920653;28;88728;-30
2023/03/21 05:33:47;;;;;;;24.45;19.50;;;9.20;99.90;;;;;;4939365;28;89653;-31
2023/03/21 05:36:14;;;;;;;25.33;17.95;;;9.20;99.90;;;;;;4925951;28;89406;-31
2023/03/21 05:38:44;;;;;;;25.25;19.42;;;9.20;99.90;;;;;;4938871;28;89983;-34
2023/03/21 05:41:15;;;;;;;25.08;19.15;;;9.20;99.90;;;;;;4939009;28;90051;-30
2023/03/21 05:43:41;;;;;;;24.83;17.67;;;9.20;99.90;;;;;;4938076;28;89142;-27
2023/03/21 05:46:06;;;;;;;28.98;20.00;;;9.20;99.90;;;;;;4937839;28;89641;-31
2023/03/21 05:48:33;;;;;;;26.17;18.02;;;9.20;99.90;;;;;;4938273;28;89552;-30
2023/03/21 05:50:59;;;;;;;29.13;18.92;;;9.20;99.90;;;;;;4935291;28;89682;-31
2023/03/21 05:53:25;;;;;;;27.90;19.92;;;9.20;99.90;;;;;;4928261;28;89989;-28
2023/03/21 05:55:52;;;;;;;24.55;17.38;;;9.20;99.90;;;;;;4938368;28;89099;-30
2023/03/21 05:58:17;;;;;;;28.30;19.70;;;9.20;99.90;;;;;;4939063;28;89518;-30
2023/03/21 06:00:43;;;;;;;21.58;16.90;;;9.20;99.90;;;;;;4935707;28;88587;-30
2023/03/21 06:03:09;;;;;;;25.02;18.00;;;9.20;99.90;;;;;;4918820;28;90483;-28
2023/03/21 06:05:35;;;;;;;26.48;18.42;;;9.20;99.90;;;;;;4921753;28;90529;-32
2023/03/21 06:08:01;;;;;;;23.02;16.92;;;9.20;99.90;;;;;;4933112;28;90356;-32
2023/03/21 06:10:26;;;;;;;29.10;18.95;;;9.20;99.90;;;;;;4932718;28;88656;-31
2023/03/21 06:12:52;;;;;;;23.10;16.20;;;9.20;99.90;;;;;;4938208;28;90283;-31
2023/03/21 06:15:18;;;;;;;22.65;16.40;;;9.20;99.90;;;;;;4925699;28;90209;-30
2023/03/21 06:17:43;;;;;;;24.35;18.00;;;9.20;99.90;;;;;;4921590;28;89232;-32
2023/03/21 06:20:10;;;;;;;24.30;18.17;;;9.20;99.90;;;;;;4922362;28;89244;-32
2023/03/21 06:22:36;;;;;;;22.50;15.77;;;9.20;99.90;;;;;;4919150;28;90220;-32
2023/03/21 06:25:03;;;;;;;24.10;17.15;;;9.20;99.90;;;;;;4922821;28;89657;-29
2023/03/21 06:27:29;;;;;;;23.77;16.65;;;9.20;99.90;;;;;;4924851;28;89682;-29
2023/03/21 06:29:56;;;;;;;26.25;18.58;;;9.20;99.90;;;;;;4918583;28;88929;-32
2023/03/21 06:32:23;;;;;;;25.80;16.58;;;9.20;99.90;;;;;;4919830;28;90252;-28
2023/03/21 06:34:48;;;;;;;21.33;15.57;;;9.20;99.90;;;;;;4918755;28;90584;-32
2023/03/21 06:37:14;;;;;;;24.70;17.65;;;9.20;99.90;;;;;;4919747;28;89099;-30
2023/03/21 06:39:40;;;;;;;21.67;16.05;;;9.20;99.90;;;;;;4919332;28;88807;-33
2023/03/21 06:42:05;;;;;;;19.92;15.73;;;9.20;99.90;;;;;;4918842;28;90276;-32
2023/03/21 06:44:31;;;;;;;23.00;16.40;;;9.20;99.90;;;;;;4919375;28;89364;-28
2023/03/21 06:46:57;;;;;;;20.70;15.85;;;9.20;99.90;;;;;;4919135;28;89930;-31
2023/03/21 06:49:23;;;;;;;19.58;15.20;;;9.30;99.90;;;;;;4920284;28;88871;-31
2023/03/21 06:51:48;;;;;;;21.85;15.00;;;9.30;99.90;;;;;;4918953;28;88727;-31
2023/03/21 06:54:16;;;;;;;17.98;13.80;;;9.30;99.90;;;;;;4917786;28;90186;-30
2023/03/21 06:56:42;;;;;;;18.25;13.55;;;9.30;99.90;;;;;;4928365;28;91013;-30
2023/03/21 06:59:07;;;;;;;20.05;13.85;;;9.30;99.90;;;;;;4937451;28;88347;-30
2023/03/21 07:01:34;;;;;;;19.05;14.60;;;9.30;99.90;;;;;;4937888;28;89716;-32
2023/03/21 07:04:00;;;;;;;23.20;14.32;;;9.30;99.90;;;;;;4936968;28;88782;-30
2023/03/21 07:06:26;;;;;;;14.73;12.48;;;9.30;99.90;;;;;;4937556;28;89061;-32
2023/03/21 07:08:53;;;;;;;21.40;12.55;;;9.30;99.90;;;;;;4937523;28;87795;-30
2023/03/21 07:11:20;;;;;;;18.08;14.18;;;9.30;99.90;;;;;;4938015;28;91791;-33
2023/03/21 07:13:47;;;;;;;21.25;13.90;;;9.30;99.90;;;;;;4926296;28;89819;-32
2023/03/21 07:16:14;;;;;;;17.98;12.68;;;9.30;99.90;;;;;;4921977;28;89371;-29
2023/03/21 07:18:40;;;;;;;19.48;13.48;;;9.40;99.90;;;;;;4928611;28;89169;-32
2023/03/21 07:21:06;;;;;;;17.48;12.25;;;9.40;99.90;;;;;;4928200;28;90374;-29
2023/03/21 07:23:31;;;;;;;16.77;12.45;;;9.40;99.90;;;;;;4931780;28;89680;-33
2023/03/21 07:25:57;;;;;;;12.23;9.93;;;9.40;99.90;;;;;;4929289;28;89824;-30
2023/03/21 07:28:23;;;;;;;15.95;11.63;;;9.40;99.90;;;;;;4927843;28;89192;-31
2023/03/21 07:30:57;;;;;;;16.63;10.82;;;9.40;99.90;;;;;;4912741;28;90136;-31
2023/03/21 07:33:24;;;;;;;15.95;11.25;;;9.40;99.90;;;;;;4921658;28;89527;-32
2023/03/21 07:35:50;;;;;;;14.65;12.10;;;9.40;99.90;;;;;;4932409;28;90473;-28
2023/03/21 07:38:17;;;;;;;15.45;11.23;;;9.40;99.90;;;;;;4939878;28;89194;-30
2023/03/21 07:40:44;;;;;;;18.08;10.65;;;9.40;99.90;;;;;;4939729;28;90073;-32
2023/03/21 07:43:09;;;;;;;13.27;10.40;;;9.40;99.90;;;;;;4937449;28;89721;-29
2023/03/21 07:45:35;;;;;;;19.75;12.05;;;9.40;99.90;;;;;;4938259;28;90120;-31
2023/03/21 07:48:01;;;;;;;17.30;11.35;;;9.40;99.90;;;;;;4938407;28;90209;-32
2023/03/21 07:50:26;;;;;;;15.55;11.57;;;9.40;99.90;;;;;;4933279;28;90377;-30
2023/03/21 07:52:52;;;;;;;14.88;11.05;;;9.40;99.90;;;;;;4936246;28;90203;-29
2023/03/21 07:55:19;;;;;;;15.43;11.15;;;9.40;99.90;;;;;;4938870;28;89652;-32
2023/03/21 07:57:48;;;;;;;18.02;13.00;;;9.40;99.90;;;;;;4923461;28;88771;-32
2023/03/21 08:00:21;;;;;;;16.60;12.93;;;9.40;99.90;;;;;;4927681;28;90048;-32
2023/03/21 08:02:49;;;;;;;23.25;13.35;;;9.40;99.90;;;;;;4938307;28;89622;-32
2023/03/21 08:05:15;;;;;;;14.27;10.75;;;9.40;99.90;;;;;;4929364;28;89029;-31
2023/03/21 08:07:40;;;;;;;14.45;12.85;;;9.40;99.90;;;;;;4933732;28;90181;-29
2023/03/21 08:10:07;;;;;;;16.02;13.48;;;9.50;99.90;;;;;;4938482;28;89973;-30
2023/03/21 08:12:32;;;;;;;17.45;11.88;;;9.40;99.90;;;;;;4937336;28;89632;-32
2023/03/21 08:14:58;;;;;;;14.27;11.80;;;9.40;99.90;;;;;;4937711;28;89502;-28
2023/03/21 08:17:23;;;;;;;16.67;11.38;;;9.40;99.90;;;;;;4937411;28;88521;-28
2023/03/21 08:19:49;;;;;;;16.70;12.27;;;9.40;99.90;;;;;;4937193;28;89178;-30
2023/03/21 08:22:15;;;;;;;19.05;12.48;;;9.40;99.90;;;;;;4937417;28;90341;-31
2023/03/21 08:24:40;;;;;;;15.68;12.43;;;9.40;99.90;;;;;;4937333;28;89657;-31
2023/03/21 08:27:06;;;;;;;22.23;12.98;;;9.40;99.90;;;;;;4920368;28;88608;-29
2023/03/21 08:29:32;;;;;;;16.48;11.48;;;9.40;99.90;;;;;;4925450;28;89701;-29
2023/03/21 08:31:57;;;;;;;13.45;11.02;;;9.40;99.90;;;;;;4923598;28;90791;-33
2023/03/21 08:34:23;;;;;;;15.57;11.95;;;9.50;99.90;;;;;;4925257;28;90076;-29
2023/03/21 08:36:48;;;;;;;16.33;11.18;;;9.50;99.90;;;;;;4923892;28;88415;-30
2023/03/21 08:39:14;;;;;;;16.77;11.88;;;9.50;99.90;;;;;;4938330;28;90406;-31
2023/03/21 08:41:40;;;;;;;16.50;12.05;;;9.50;99.90;;;;;;4919899;28;91468;-30
2023/03/21 08:44:05;;;;;;;18.23;11.43;;;9.60;99.90;;;;;;4936921;28;88969;-31
2023/03/21 08:46:31;;;;;;;14.82;11.20;;;9.50;99.90;;;;;;4937890;28;89062;-30
2023/03/21 08:48:57;;;;;;;13.90;11.38;;;9.60;99.90;;;;;;4937069;28;90138;-32
2023/03/21 08:51:23;;;;;;;17.55;12.10;;;9.50;99.90;;;;;;4937807;28;89741;-30
2023/03/21 08:53:50;;;;;;;14.50;12.77;;;9.60;99.90;;;;;;4936183;28;89552;-31
2023/03/21 08:56:16;;;;;;;19.98;12.95;;;9.50;99.90;;;;;;4928036;28;89514;-31
2023/03/21 08:58:42;;;;;;;17.02;11.98;;;9.60;99.90;;;;;;4920066;28;89847;-30
2023/03/21 09:01:10;;;;;;;14.52;10.85;;;9.60;99.90;;;;;;4936839;28;89663;-31
2023/03/21 09:03:37;;;;;;;12.93;10.80;;;9.60;99.90;;;;;;4936890;28;89148;-29
2023/03/21 09:06:03;;;;;;;12.98;11.70;;;9.60;99.90;;;;;;4937297;28;90074;-32
2023/03/21 09:08:28;;;;;;;17.05;12.68;;;9.60;99.90;;;;;;4935102;28;90087;-31
2023/03/21 09:10:55;;;;;;;13.27;11.02;;;9.60;99.90;;;;;;4936864;28;89792;-32
2023/03/21 09:13:21;;;;;;;21.05;13.70;;;9.60;99.90;;;;;;4936251;28;88909;-32
2023/03/21 09:15:47;;;;;;;24.00;14.25;;;9.70;99.90;;;;;;4936386;28;89019;-30
2023/03/21 09:18:13;;;;;;;21.85;14.40;;;9.70;99.90;;;;;;4936358;28;90247;-30
2023/03/21 09:20:41;;;;;;;21.20;14.27;;;9.70;99.90;;;;;;4936241;28;90338;-34
2023/03/21 09:23:09;;;;;;;21.25;14.18;;;9.80;99.90;;;;;;4936228;28;90844;-28
2023/03/21 09:25:35;;;;;;;19.45;14.32;;;9.70;99.90;;;;;;4936259;28;88437;-31
2023/03/21 09:28:03;;;;;;;20.25;13.52;;;9.80;99.90;;;;;;4935510;28;89221;-31
2023/03/21 09:30:30;;;;;;;;;;;9.70;99.90;;;;;;4925984;28;89627;-30
2023/03/21 09:32:58;;;;;;;17.30;13.20;;;9.80;99.90;;;;;;4924192;28;89059;-31
2023/03/21 09:35:25;;;;;;;21.83;13.73;;;9.70;99.90;;;;;;4926010;28;89179;-31
2023/03/21 09:37:52;;;;;;;18.40;13.30;;;9.80;99.90;;;;;;4923882;28;90598;-30
2023/03/21 09:40:33;;;;;;;21.23;14.32;;;9.80;99.90;;;;;;4936830;28;89646;-29
2023/03/21 09:43:37;;;;;;;21.77;14.82;;;9.70;99.90;;;;;;4935187;28;89713;-29
2023/03/21 09:46:18;;;;;;;20.77;13.63;;;9.70;99.90;;;;;;4930923;28;90456;-29
2023/03/21 09:49:06;;;;;;;16.98;13.70;;;9.80;99.90;;;;;;4936513;28;90471;-29
2023/03/21 09:51:46;;;;;;;20.02;13.40;;;9.80;99.90;;;;;;4937357;28;89813;-29
2023/03/21 09:54:20;;;;;;;20.17;15.70;;;9.90;99.90;;;;;;4921277;28;89877;-30
2023/03/21 09:56:46;;;;;;;20.13;13.70;;;9.90;99.90;;;;;;4917689;28;89066;-27
2023/03/21 09:59:32;;;;;;;24.02;13.93;;;9.90;99.90;;;;;;4918025;28;90131;-29
2023/03/21 10:01:59;;;;;;;21.02;14.38;;;10.00;99.90;;;;;;4917955;28;90822;-29
2023/03/21 10:04:26;;;;;;;25.02;14.38;;;10.10;99.90;;;;;;4918436;28;89566;-29
2023/03/21 10:07:00;;;;;;;26.40;14.70;;;10.10;99.90;;;;;;4918313;28;88805;-28
2023/03/21 10:09:28;;;;;;;21.58;13.23;;;10.10;99.90;;;;;;4906348;28;92343;-32
2023/03/21 10:12:08;;;;;;;17.15;13.02;;;10.10;99.90;;;;;;4916476;28;89749;-33
2023/03/21 10:14:40;;;;;;;17.92;14.20;;;10.10;99.90;;;;;;4918107;28;90480;-32
2023/03/21 10:17:32;;;;;;;17.95;14.27;;;10.10;99.90;;;;;;4919161;28;89236;-29
2023/03/21 10:20:20;;;;;;;24.02;14.45;;;10.10;99.90;;;;;;4905626;28;90400;-30
2023/03/21 10:22:47;;;;;;;19.02;14.95;;;10.20;99.90;;;;;;4922473;28;90285;-31
2023/03/21 10:25:20;;;;;;;19.50;15.15;;;10.20;99.90;;;;;;4927557;28;89999;-30
2023/03/21 10:27:46;;;;;;;20.75;14.77;;;10.20;99.90;;;;;;4897584;28;89321;-30
2023/03/21 10:30:26;;;;;;;34.28;14.02;;;10.20;99.90;;;;;;4920542;28;90278;-32
2023/03/21 10:32:51;;;;;;;17.90;12.98;;;10.20;99.90;;;;;;4919785;28;89192;-32
2023/03/21 10:35:18;;;;;;;24.08;14.65;;;10.20;99.90;;;;;;4923583;28;90820;-31
2023/03/21 10:37:45;;;;;;;19.13;14.32;;;10.20;99.90;;;;;;4919834;28;90929;-31
2023/03/21 10:40:16;;;;;;;17.20;13.68;;;10.20;99.90;;;;;;4923477;28;90445;-30
2023/03/21 10:42:42;;;;;;;16.25;11.90;;;10.10;99.90;;;;;;4921054;28;89047;-35
2023/03/21 10:45:19;;;;;;;21.33;13.75;;;10.20;99.90;;;;;;4923137;28;88200;-29
2023/03/21 10:47:48;;;;;;;22.33;12.30;;;10.20;99.90;;;;;;4922287;28;89024;-29
2023/03/21 10:50:16;;;;;;;25.05;14.63;;;10.20;99.90;;;;;;4921536;28;90302;-32
2023/03/21 10:52:48;;;;;;;24.00;14.35;;;10.20;99.90;;;;;;4923116;28;89288;-31
2023/03/21 10:55:23;;;;;;;16.10;12.40;;;10.20;99.90;;;;;;4914930;28;90564;-32
2023/03/21 10:57:56;;;;;;;26.98;13.25;;;10.20;99.90;;;;;;4927277;28;88241;-31
2023/03/21 11:00:29;;;;;;;17.05;13.02;;;10.20;99.90;;;;;;4923481;28;90344;-30
2023/03/21 11:02:56;;;;;;;18.60;12.77;;;10.30;99.90;;;;;;4918920;28;90664;-29
2023/03/21 11:05:31;;;;;;;21.65;12.43;;;10.30;99.90;;;;;;4928538;28;90639;-31
2023/03/21 11:08:16;;;;;;;16.42;12.52;;;10.30;99.90;;;;;;4933628;28;89714;-32
2023/03/21 11:10:54;;;;;;;19.67;12.77;;;10.30;99.90;;;;;;4926471;28;89898;-32
2023/03/21 11:13:26;;;;;;;15.18;12.20;;;10.40;99.90;;;;;;4923327;28;88584;-30
2023/03/21 11:15:57;;;;;;;19.52;14.45;;;10.40;99.90;;;;;;4920051;28;89421;-30
2023/03/21 11:18:25;;;;;;;21.83;13.40;;;10.50;99.90;;;;;;4923303;28;89563;-32
2023/03/21 11:20:55;;;;;;;;;;;10.40;99.90;;;;;;4933983;28;90347;-33
2023/03/21 11:23:27;;;;;;;17.45;13.13;;;10.50;99.90;;;;;;4930825;28;90068;-30
2023/03/21 11:25:53;;;;;;;16.45;12.90;;;10.60;99.90;;;;;;4928006;28;89680;-32
2023/03/21 11:28:22;;;;;;;23.50;14.73;;;10.50;99.90;;;;;;4927642;28;89084;-33
2023/03/21 11:30:54;;;;;;;24.83;14.38;;;10.60;99.90;;;;;;4919843;28;89415;-30
2023/03/21 11:33:25;;;;;;;21.33;14.48;;;10.60;99.90;;;;;;4919755;28;89795;-28
2023/03/21 11:35:59;;;;;;;16.50;13.20;;;10.70;99.90;;;;;;4919494;28;90016;-33
2023/03/21 11:38:30;;;;;;;21.10;14.23;;;10.70;99.90;;;;;;4919504;28;89168;-30
2023/03/21 11:40:59;;;;;;;14.60;11.05;;;10.80;99.90;;;;;;4919600;28;90655;-32
2023/03/21 11:43:36;;;;;;;15.90;12.32;;;10.80;99.90;;;;;;4907233;28;91435;-31
2023/03/21 11:46:13;;;;;;;18.13;12.20;;;10.90;99.90;;;;;;4919556;28;89759;-33
2023/03/21 11:48:43;;;;;;;14.88;10.68;;;10.90;99.90;;;;;;4919716;28;88495;-31
2023/03/21 11:51:48;;;;;;;18.10;10.70;;;11.00;99.90;;;;;;4919558;28;90429;-28
2023/03/21 11:54:51;;;;;;;12.90;10.07;;;11.00;99.90;;;;;;4968045;22;90854;-31
2023/03/21 11:57:59;;;;;;;18.33;11.20;;;11.00;99.90;;;;;;4938602;28;90953;-29
2023/03/21 12:00:39;;;;;;;12.80;10.45;;;11.20;99.90;;;;;;4933673;28;88949;-28
2023/03/21 12:03:13;;;;;;;13.82;9.27;;;11.20;99.90;;;;;;4938654;28;91242;-30
2023/03/21 12:05:54;;;;;;;17.42;8.18;;;11.20;99.90;;;;;;4937723;28;90532;-31
2023/03/21 12:08:36;;;;;;;10.70;9.20;;;11.20;99.90;;;;;;4939073;28;89529;-32
2023/03/21 12:11:10;;;;;;;13.07;9.70;;;11.30;99.90;;;;;;4928837;28;89962;-31
2023/03/21 12:13:54;;;;;;;11.25;9.98;;;11.30;99.90;;;;;;4939069;28;90143;-30
2023/03/21 12:16:56;;;;;;;11.27;8.50;;;11.40;99.90;;;;;;4938834;28;89738;-30
2023/03/21 12:19:34;;;;;;;20.35;8.82;;;11.30;99.90;;;;;;4924013;28;90111;-30
2023/03/21 12:22:27;;;;;;;13.07;8.70;;;11.40;99.90;;;;;;4937943;28;90229;-29
2023/03/21 12:24:54;;;;;;;10.32;8.15;;;11.40;99.90;;;;;;4938945;28;90435;-30
2023/03/21 12:27:36;;;;;;;16.75;8.82;;;11.50;99.90;;;;;;4938608;28;90955;-32
2023/03/21 12:30:33;;;;;;;10.63;9.13;;;11.60;99.90;;;;;;4938534;28;89113;-31
2023/03/21 12:33:16;;;;;;;9.85;7.32;;;11.60;99.90;;;;;;4939138;28;89581;-31
2023/03/21 12:35:51;;;;;;;19.42;9.23;;;11.70;99.90;;;;;;4938400;28;90316;-30
2023/03/21 12:38:22;;;;;;;12.85;8.35;;;11.70;99.90;;;;;;4938437;28;90317;-31
2023/03/21 12:41:13;;;;;;;9.95;7.80;;;11.70;99.90;;;;;;4938910;28;89471;-32
2023/03/21 12:43:44;;;;;;;13.93;8.60;;;11.60;99.90;;;;;;4929759;28;87778;-32
2023/03/21 12:46:18;;;;;;;14.70;8.63;;;11.60;99.90;;;;;;4938643;28;89005;-29
2023/03/21 12:48:48;;;;;;;11.65;8.40;;;11.60;99.90;;;;;;4938432;28;90814;-30
2023/03/21 12:51:19;;;;;;;8.65;7.75;;;11.70;99.90;;;;;;4938459;28;90330;-32